createdAt,value
2022-08-30T00:04:11.730Z,12.93
2022-08-30T00:09:14.122Z,12.93
2022-08-30T00:14:16.348Z,12.90
2022-08-30T00:19:18.466Z,12.97
2022-08-30T00:24:20.623Z,12.96
2022-08-30T00:29:23.772Z,12.82
2022-08-30T00:34:25.939Z,12.83
2022-08-30T00:39:28.176Z,12.72
2022-08-30T00:44:30.398Z,12.71
2022-08-30T00:49:34.502Z,12.54
2022-08-30T00:54:37.547Z,12.39
2022-08-30T00:59:40.937Z,12.29
2022-08-30T01:04:44.334Z,12.09
2022-08-30T01:09:46.988Z,11.94
2022-08-30T01:14:49.736Z,11.82
2022-08-30T01:19:58.718Z,11.79
2022-08-30T01:25:02.472Z,11.66
2022-08-30T01:30:06.692Z,11.57
2022-08-30T01:35:10.772Z,11.51
2022-08-30T01:40:17.425Z,11.58
2022-08-30T01:45:19.644Z,11.52
2022-08-30T01:50:22.020Z,11.55
2022-08-30T01:55:24.242Z,11.28
2022-08-30T02:00:26.688Z,10.98
2022-08-30T02:05:28.858Z,10.68
2022-08-30T02:10:31.265Z,10.53
2022-08-30T02:15:41.617Z,10.42
2022-08-30T02:20:44.159Z,10.26
2022-08-30T02:25:46.761Z,10.12
2022-08-30T02:30:49.106Z,10.05
2022-08-30T02:35:51.326Z,9.99
2022-08-30T02:40:53.758Z,10.15
2022-08-30T02:45:56.089Z,10.08
2022-08-30T02:51:05.750Z,10.01
2022-08-30T02:56:13.617Z,10.03
2022-08-30T03:01:16.619Z,10.16
2022-08-30T03:06:18.991Z,10.43
2022-08-30T03:11:21.232Z,10.61
2022-08-30T03:16:23.539Z,10.78
2022-08-30T03:21:25.758Z,10.83
2022-08-30T03:26:27.932Z,10.72
2022-08-30T03:31:30.139Z,10.66
2022-08-30T03:36:33.862Z,10.72
2022-08-30T03:41:36.078Z,10.57
2022-08-30T03:46:39.056Z,10.53
2022-08-30T03:51:41.288Z,10.24
2022-08-30T03:56:44.000Z,10.06
2022-08-30T04:01:46.253Z,9.94
2022-08-30T04:06:49.223Z,9.86
2022-08-30T04:11:51.382Z,9.67
2022-08-30T04:16:53.582Z,9.72
2022-08-30T04:21:58.630Z,9.67
2022-08-30T04:27:00.948Z,9.63
2022-08-30T04:32:03.473Z,9.68
2022-08-30T04:37:05.735Z,9.46
2022-08-30T04:42:12.082Z,9.55
2022-08-30T04:47:15.433Z,9.47
2022-08-30T04:52:17.627Z,9.39
2022-08-30T04:57:19.846Z,9.09
2022-08-30T05:02:23.662Z,8.97
2022-08-30T05:07:31.071Z,8.79
2022-08-30T05:12:33.277Z,8.73
2022-08-30T05:17:37.670Z,8.66
2022-08-30T05:23:19.479Z,8.62
2022-08-30T05:33:51.283Z,8.60
2022-08-30T05:38:54.428Z,8.86
2022-08-30T05:44:00.708Z,8.88
2022-08-30T05:49:05.022Z,9.31
2022-08-30T05:54:07.373Z,9.54
2022-08-30T05:59:09.807Z,9.78
2022-08-30T06:04:13.145Z,10.22
2022-08-30T06:09:15.343Z,10.44
2022-08-30T06:14:17.425Z,10.69
2022-08-30T06:19:19.849Z,10.85
2022-08-30T06:24:35.693Z,11.19
2022-08-30T06:29:44.262Z,11.45
2022-08-30T06:34:46.528Z,11.84
2022-08-30T06:39:48.698Z,12.21
2022-08-30T06:44:50.865Z,12.62
2022-08-30T06:50:00.593Z,13.24
2022-08-30T06:55:03.219Z,14.23
2022-08-30T07:00:08.594Z,15.32
2022-08-30T07:05:13.129Z,16.07
2022-08-30T07:10:17.805Z,16.58
2022-08-30T07:15:20.076Z,17.18
2022-08-30T07:20:22.242Z,17.55
2022-08-30T07:25:24.639Z,18.11
2022-08-30T07:30:26.830Z,18.65
2022-08-30T07:35:29.123Z,19.01
2022-08-30T07:40:34.517Z,19.18
2022-08-30T07:45:38.380Z,19.83
2022-08-30T07:50:44.211Z,19.88
2022-08-30T07:55:46.378Z,20.72
2022-08-30T08:00:48.750Z,21.25
2022-08-30T08:05:50.907Z,21.85
2022-08-30T08:10:53.105Z,21.69
2022-08-30T08:15:55.330Z,21.84
2022-08-30T08:20:58.877Z,21.99
2022-08-30T08:26:01.924Z,21.97
2022-08-30T08:31:13.140Z,22.59
2022-08-30T08:36:15.855Z,21.74
2022-08-30T08:41:29.848Z,20.66
2022-08-30T08:47:05.723Z,19.68
2022-08-30T08:52:17.087Z,21.15
2022-08-30T08:57:22.711Z,22.09
2022-08-30T09:02:29.907Z,22.18
2022-08-30T09:07:38.450Z,22.94
2022-08-30T09:12:40.926Z,23.43
2022-08-30T09:17:50.543Z,23.97
2022-08-30T09:22:53.269Z,23.95
2022-08-30T09:28:11.092Z,25.03
2022-08-30T09:33:20.800Z,25.12
2022-08-30T09:38:31.331Z,24.72
2022-08-30T09:43:35.237Z,22.75
2022-08-30T09:48:42.521Z,23.91
2022-08-30T09:54:18.276Z,24.21
2022-08-30T10:00:03.773Z,25.08
2022-08-30T10:05:44.187Z,25.45
2022-08-30T10:10:52.039Z,25.90
2022-08-30T10:16:02.811Z,25.65
2022-08-30T10:21:17.055Z,25.48
2022-08-30T10:26:36.369Z,26.54
2022-08-30T10:31:49.220Z,26.36
2022-08-30T10:36:55.332Z,27.13
2022-08-30T10:42:08.796Z,26.38
2022-08-30T10:47:36.292Z,25.15
2022-08-30T10:52:56.680Z,26.41
2022-08-30T10:58:05.174Z,26.59
2022-08-30T11:03:25.834Z,26.39
2022-08-30T11:08:49.735Z,24.84
2022-08-30T11:13:57.138Z,23.70
2022-08-30T11:19:00.078Z,25.51
2022-08-30T11:24:07.848Z,25.58
2022-08-30T11:29:35.314Z,25.76
2022-08-30T11:34:59.526Z,26.81
2022-08-30T11:40:06.023Z,26.63
2022-08-30T11:45:25.445Z,26.50
2022-08-30T11:50:55.141Z,27.68
2022-08-30T11:56:10.315Z,27.75
2022-08-30T12:01:50.693Z,28.17
2022-08-30T12:07:00.180Z,28.63
2022-08-30T12:12:11.425Z,29.51
2022-08-30T12:17:45.471Z,29.52
2022-08-30T12:22:47.795Z,29.88
2022-08-30T12:27:50.899Z,27.70
2022-08-30T12:32:53.869Z,29.07
2022-08-30T12:38:05.438Z,29.17
2022-08-30T12:43:24.727Z,29.12
2022-08-30T12:48:28.441Z,29.60
2022-08-30T12:53:51.400Z,30.42
2022-08-30T12:58:53.645Z,27.38
2022-08-30T13:04:17.228Z,25.38
2022-08-30T13:09:32.499Z,24.56
2022-08-30T13:14:39.129Z,24.23
2022-08-30T13:19:56.373Z,25.79
2022-08-30T13:24:59.084Z,25.98
2022-08-30T13:30:27.771Z,24.81
2022-08-30T13:35:31.411Z,26.52
2022-08-30T13:40:34.078Z,26.86
2022-08-30T13:45:41.657Z,25.69
2022-08-30T13:50:44.195Z,24.89
2022-08-30T13:55:46.395Z,26.26
2022-08-30T14:00:50.634Z,27.40
2022-08-30T14:06:15.701Z,25.82
2022-08-30T14:11:21.240Z,25.03
2022-08-30T14:16:28.193Z,26.67
2022-08-30T14:21:30.828Z,28.14
2022-08-30T14:26:36.944Z,28.78
2022-08-30T14:31:40.624Z,28.99
2022-08-30T14:36:44.944Z,26.92
2022-08-30T14:41:50.752Z,27.54
2022-08-30T14:46:54.053Z,27.14
2022-08-30T14:51:56.634Z,28.37
2022-08-30T14:56:58.834Z,28.14
2022-08-30T15:02:01.772Z,27.83
2022-08-30T15:07:04.582Z,26.83
2022-08-30T15:12:06.799Z,27.39
2022-08-30T15:17:09.906Z,27.14
2022-08-30T15:22:12.176Z,27.25
2022-08-30T15:27:14.340Z,27.51
2022-08-30T15:32:16.936Z,27.01
2022-08-30T15:37:20.595Z,26.31
2022-08-30T15:42:22.932Z,24.79
2022-08-30T15:47:25.103Z,25.45
2022-08-30T15:52:27.513Z,26.12
2022-08-30T15:57:29.748Z,26.26
2022-08-30T16:02:32.160Z,26.47
2022-08-30T16:07:38.605Z,26.45
2022-08-30T16:12:42.669Z,26.05
2022-08-30T16:17:45.104Z,25.85
2022-08-30T16:22:47.401Z,25.84
2022-08-30T16:27:49.584Z,25.67
2022-08-30T16:32:51.768Z,24.98
2022-08-30T16:37:53.853Z,24.61
2022-08-30T16:42:56.200Z,24.06
2022-08-30T16:47:58.383Z,23.34
2022-08-30T16:53:00.603Z,23.02
2022-08-30T16:58:08.474Z,22.35
2022-08-30T17:03:13.482Z,22.05
2022-08-30T17:08:15.914Z,21.37
2022-08-30T17:13:18.393Z,20.77
2022-08-30T17:18:20.568Z,20.38
2022-08-30T17:23:22.986Z,20.08
2022-08-30T17:28:25.959Z,19.83
2022-08-30T17:33:28.944Z,19.59
2022-08-30T17:38:31.172Z,19.40
2022-08-30T17:43:35.354Z,19.25
2022-08-30T17:48:38.834Z,19.06
2022-08-30T17:53:41.099Z,18.92
2022-08-30T17:58:43.280Z,18.79
2022-08-30T18:03:45.833Z,18.54
2022-08-30T18:08:48.036Z,18.32
2022-08-30T18:13:50.231Z,18.14
2022-08-30T18:18:55.687Z,17.89
2022-08-30T18:23:59.865Z,17.61
2022-08-30T18:29:02.809Z,17.40
2022-08-30T18:34:05.052Z,17.15
2022-08-30T18:39:07.536Z,17.04
2022-08-30T18:44:26.853Z,16.90
2022-08-30T18:49:32.211Z,16.67
2022-08-30T18:54:49.781Z,16.49
2022-08-30T18:59:54.510Z,16.31
2022-08-30T19:04:56.684Z,16.18
2022-08-30T19:09:59.079Z,16.01
2022-08-30T19:15:02.188Z,15.87
2022-08-30T19:20:17.917Z,15.79
2022-08-30T19:25:22.259Z,15.65
2022-08-30T19:30:29.891Z,15.59
2022-08-30T19:35:32.682Z,15.46
2022-08-30T19:40:34.894Z,15.33
2022-08-30T19:45:37.634Z,15.24
2022-08-30T19:50:39.790Z,15.26
2022-08-30T19:55:42.824Z,15.11
2022-08-30T20:06:08.915Z,14.86
2022-08-30T20:11:19.052Z,14.84
2022-08-30T20:16:21.221Z,14.77
2022-08-30T20:21:32.119Z,14.69
2022-08-30T20:26:34.587Z,14.57
2022-08-30T20:31:38.931Z,14.55
2022-08-30T20:36:41.129Z,14.52
2022-08-30T20:41:44.477Z,14.54
2022-08-30T20:46:48.443Z,14.50
2022-08-30T20:51:54.091Z,14.49
2022-08-30T20:56:56.345Z,14.51
2022-08-30T21:02:00.085Z,14.46
2022-08-30T21:07:02.335Z,14.37
2022-08-30T21:12:05.042Z,14.29
2022-08-30T21:17:07.239Z,14.28
2022-08-30T21:22:09.944Z,14.28
2022-08-30T21:27:12.130Z,14.25
2022-08-30T21:32:14.622Z,14.18
2022-08-30T21:37:16.833Z,14.06
2022-08-30T21:42:19.008Z,14.00
2022-08-30T21:47:23.333Z,13.89
2022-08-30T21:52:26.231Z,13.73
2022-08-30T21:57:29.081Z,13.59
2022-08-30T22:02:32.972Z,13.54
2022-08-30T22:07:35.141Z,13.41
2022-08-30T22:12:37.424Z,13.37
2022-08-30T22:17:39.604Z,13.39
2022-08-30T22:22:41.773Z,13.48
2022-08-30T22:27:43.945Z,13.73
2022-08-30T22:32:46.100Z,13.98
2022-08-30T22:37:53.611Z,14.23
2022-08-30T22:42:55.907Z,14.47
2022-08-30T22:47:58.047Z,14.65
2022-08-30T22:53:00.302Z,15.07
2022-08-30T22:58:02.445Z,14.94
2022-08-30T23:03:04.657Z,14.93
2022-08-30T23:08:07.551Z,14.88
2022-08-30T23:13:09.982Z,14.80
2022-08-30T23:18:12.167Z,14.87
2022-08-30T23:23:14.581Z,14.76
2022-08-30T23:28:20.586Z,14.70
2022-08-30T23:33:22.986Z,14.58
2022-08-30T23:38:25.234Z,14.61
2022-08-30T23:43:27.503Z,14.55
2022-08-30T23:48:29.626Z,14.53
2022-08-30T23:53:31.778Z,14.66
2022-08-30T23:58:33.972Z,14.49
